Time;durP1;ratioP1;P1;durP2;ratioP2;P2;SDS_P1;SDS_P2;PMS_P1;PMS_P2;Temp;Humidity;BMP_temperature;BMP_pressure;BME280_temperature;BME280_humidity;BME280_pressure;Samples;Min_cycle;Max_cycle;Signal;HPM_P1;HPM_P2
2021/12/15 00:03:05;;;;;;;4.93;2.92;;;;;;;;;;20919808;28;20491;-64
2021/12/15 00:13:10;;;;;;;6.43;3.13;;;;;;;;;;20918027;28;20053;-63
2021/12/15 00:23:13;;;;;;;10.10;4.03;;;;;;;;;;20917359;28;20553;-62
2021/12/15 00:33:19;;;;;;;6.25;3.20;;;;;;;;;;20917448;28;20434;-61
2021/12/15 00:43:27;;;;;;;6.72;3.35;;;;;;;;;;20915394;28;20088;-63
2021/12/15 00:53:29;;;;;;;6.38;3.50;;;;;;;;;;20915471;28;20187;-63
2021/12/15 01:03:32;;;;;;;7.03;3.13;;;;;;;;;;20914013;28;20076;-63
2021/12/15 01:24:04;;;;;;;7.50;3.88;;;;;;;;;;20913444;28;20407;-63
2021/12/15 01:34:07;;;;;;;7.72;4.35;;;;;;;;;;20912312;28;20060;-64
2021/12/15 01:54:13;;;;;;;7.07;4.25;;;;;;;;;;20912176;28;20079;-62
2021/12/15 02:04:21;;;;;;;7.40;4.22;;;;;;;;;;20912361;28;20048;-62
2021/12/15 02:14:23;;;;;;;5.67;3.70;;;;;;;;;;20912319;28;20553;-60
2021/12/15 02:24:25;;;;;;;5.75;3.80;;;;;;;;;;20911514;28;20049;-62
2021/12/15 02:44:33;;;;;;;5.50;3.67;;;;;;;;;;20910384;28;20514;-63
2021/12/15 02:54:41;;;;;;;7.28;3.75;;;;;;;;;;20924558;28;20053;-62
2021/12/15 03:05:16;;;;;;;5.68;3.47;;;;;;;;;;20925534;28;20068;-64
2021/12/15 03:15:35;;;;;;;4.95;3.42;;;;;;;;;;20926039;28;20057;-61
2021/12/15 03:25:37;;;;;;;5.35;2.95;;;;;;;;;;20922243;28;20465;-61
2021/12/15 03:36:09;;;;;;;5.68;3.03;;;;;;;;;;20922728;28;20048;-61
2021/12/15 03:46:18;;;;;;;5.25;2.97;;;;;;;;;;20920084;28;20499;-61
2021/12/15 03:56:29;;;;;;;4.70;2.78;;;;;;;;;;20920292;28;20167;-62
2021/12/15 04:06:42;;;;;;;6.70;2.90;;;;;;;;;;20919267;28;20057;-62
2021/12/15 04:17:03;;;;;;;5.72;2.90;;;;;;;;;;20918082;28;20081;-62
2021/12/15 04:27:15;;;;;;;6.37;3.03;;;;;;;;;;20917452;28;20095;-61
2021/12/15 04:37:20;;;;;;;3.77;2.43;;;;;;;;;;20917234;28;20045;-61
2021/12/15 04:47:29;;;;;;;3.90;2.88;;;;;;;;;;20915629;28;20096;-62
2021/12/15 04:57:36;;;;;;;4.43;2.58;;;;;;;;;;20915758;28;20049;-61
2021/12/15 05:07:40;;;;;;;4.57;2.67;;;;;;;;;;20914856;28;20136;-62
2021/12/15 05:17:44;;;;;;;6.50;3.50;;;;;;;;;;20914034;28;20045;-63
2021/12/15 05:27:49;;;;;;;6.70;2.78;;;;;;;;;;20913781;28;20114;-61
2021/12/15 05:37:55;;;;;;;3.78;2.25;;;;;;;;;;20913348;28;20056;-62
2021/12/15 05:48:10;;;;;;;4.47;2.15;;;;;;;;;;20912280;28;20060;-62
2021/12/15 05:58:15;;;;;;;5.97;2.22;;;;;;;;;;20912724;28;20049;-61
2021/12/15 06:08:20;;;;;;;3.73;2.43;;;;;;;;;;20911805;28;20049;-63
2021/12/15 06:18:22;;;;;;;5.45;2.88;;;;;;;;;;20911242;28;20044;-62
2021/12/15 06:28:44;;;;;;;5.00;2.97;;;;;;;;;;20927087;28;20487;-61
2021/12/15 06:39:02;;;;;;;5.15;2.38;;;;;;;;;;20927073;28;20049;-63
2021/12/15 06:59:49;;;;;;;5.53;2.97;;;;;;;;;;20927835;28;20053;-62
2021/12/15 07:09:53;;;;;;;3.78;2.50;;;;;;;;;;20924933;28;20066;-62
2021/12/15 07:30:24;;;;;;;9.98;6.50;;;;;;;;;;20922669;28;20079;-61
2021/12/15 07:40:43;;;;;;;6.50;3.65;;;;;;;;;;20921085;28;20435;-61
2021/12/15 07:50:56;;;;;;;7.35;3.10;;;;;;;;;;20920417;28;20053;-61
2021/12/15 08:01:20;;;;;;;5.35;2.50;;;;;;;;;;20919434;28;20049;-63
2021/12/15 08:11:33;;;;;;;6.85;3.47;;;;;;;;;;20918382;28;20056;-62
2021/12/15 08:21:55;;;;;;;7.05;3.83;;;;;;;;;;20918526;28;20048;-61
2021/12/15 08:32:16;;;;;;;8.63;4.45;;;;;;;;;;20917830;28;20107;-61
2021/12/15 08:42:38;;;;;;;10.75;4.60;;;;;;;;;;20916349;28;20052;-60
2021/12/15 08:53:02;;;;;;;8.32;3.85;;;;;;;;;;20916679;28;20068;-60
2021/12/15 09:03:24;;;;;;;11.02;4.07;;;;;;;;;;20916491;28;20410;-61
2021/12/15 09:13:47;;;;;;;12.32;4.95;;;;;;;;;;20915667;28;20049;-60
2021/12/15 09:24:10;;;;;;;11.00;5.28;;;;;;;;;;20914413;28;20502;-61
2021/12/15 09:34:23;;;;;;;14.32;8.27;;;;;;;;;;20914052;28;20129;-63
2021/12/15 09:44:45;;;;;;;18.85;9.63;;;;;;;;;;20912631;28;20049;-64
2021/12/15 10:06:05;;;;;;;20.77;8.48;;;;;;;;;;20929812;28;20045;-63
2021/12/15 10:27:32;;;;;;;16.40;5.93;;;;;;;;;;20928437;28;20056;-65
2021/12/15 10:38:15;;;;;;;16.33;5.80;;;;;;;;;;20923246;28;20041;-54
2021/12/15 10:48:55;;;;;;;9.85;4.60;;;;;;;;;;20922810;28;20064;-59
2021/12/15 10:59:17;;;;;;;14.55;6.90;;;;;;;;;;20925847;28;20427;-58
2021/12/15 11:10:05;;;;;;;7.70;4.45;;;;;;;;;;20921585;28;20052;-52
2021/12/15 11:20:34;;;;;;;9.75;4.30;;;;;;;;;;20914047;28;20076;-64
2021/12/15 11:30:55;;;;;;;8.73;4.18;;;;;;;;;;20912467;28;20053;-65
2021/12/15 11:41:29;;;;;;;8.60;3.40;;;;;;;;;;20899399;28;20392;-63
2021/12/15 11:51:51;;;;;;;7.38;3.35;;;;;;;;;;20914606;28;20057;-63
2021/12/15 12:02:28;;;;;;;7.88;3.42;;;;;;;;;;20919616;28;20048;-64
2021/12/15 12:12:58;;;;;;;8.82;3.63;;;;;;;;;;20918451;28;20053;-58
2021/12/15 12:23:22;;;;;;;4.55;2.50;;;;;;;;;;20917967;28;20049;-66
2021/12/15 12:33:44;;;;;;;8.93;2.75;;;;;;;;;;20917027;28;20063;-63
2021/12/15 12:44:02;;;;;;;8.52;5.05;;;;;;;;;;20916098;28;20191;-66
2021/12/15 13:04:52;;;;;;;5.63;2.90;;;;;;;;;;20915673;28;20041;-67
2021/12/15 13:15:00;;;;;;;4.72;1.17;;;;;;;;;;20913883;28;20503;-65
2021/12/15 13:36:07;;;;;;;4.97;1.48;;;;;;;;;;20913956;28;20049;-66
2021/12/15 13:46:28;;;;;;;2.47;1.17;;;;;;;;;;20914648;28;20479;-65
2021/12/15 13:56:52;;;;;;;3.20;1.30;;;;;;;;;;20914537;28;20407;-65
2021/12/15 14:07:33;;;;;;;1.92;0.90;;;;;;;;;;20995346;28;20052;-66
2021/12/15 14:17:55;;;;;;;4.72;2.25;;;;;;;;;;20994649;28;20132;-67
2021/12/15 14:28:24;;;;;;;4.45;1.23;;;;;;;;;;20995658;28;20517;-66
2021/12/15 14:38:46;;;;;;;3.67;1.77;;;;;;;;;;20992928;28;20048;-66
2021/12/15 14:49:10;;;;;;;4.03;1.60;;;;;;;;;;21006650;28;20044;-65
2021/12/15 14:59:39;;;;;;;4.73;2.00;;;;;;;;;;21008319;28;20478;-65
2021/12/15 15:10:02;;;;;;;4.97;1.90;;;;;;;;;;21007308;28;20056;-67
2021/12/15 15:20:29;;;;;;;9.80;3.97;;;;;;;;;;21005748;28;20056;-66
2021/12/15 15:30:52;;;;;;;7.45;4.10;;;;;;;;;;21005645;28;20098;-66
2021/12/15 15:41:18;;;;;;;9.57;3.17;;;;;;;;;;21005857;28;20512;-66
2021/12/15 15:51:41;;;;;;;10.18;3.45;;;;;;;;;;21002301;28;20064;-67
2021/12/15 16:02:03;;;;;;;11.07;5.57;;;;;;;;;;21003641;28;20097;-66
2021/12/15 16:12:26;;;;;;;14.90;6.47;;;;;;;;;;21000866;28;20056;-66
2021/12/15 16:22:51;;;;;;;17.73;5.20;;;;;;;;;;20993437;28;20040;-61
2021/12/15 16:33:13;;;;;;;14.10;6.70;;;;;;;;;;21003852;28;20059;-63
2021/12/15 16:43:54;;;;;;;19.35;7.90;;;;;;;;;;20984134;28;20068;-65
2021/12/15 16:54:02;;;;;;;12.88;5.35;;;;;;;;;;20982535;28;20052;-67
2021/12/15 17:04:08;;;;;;;9.07;5.28;;;;;;;;;;20953551;28;20064;-66
2021/12/15 17:14:12;;;;;;;13.53;6.50;;;;;;;;;;20988476;28;20068;-57
2021/12/15 17:24:27;;;;;;;14.35;6.55;;;;;;;;;;21077872;28;20395;-58
2021/12/15 17:34:35;;;;;;;14.05;5.90;;;;;;;;;;21078671;28;20553;-54
2021/12/15 17:44:45;;;;;;;14.60;5.82;;;;;;;;;;21078327;28;20394;-53
2021/12/15 17:54:55;;;;;;;16.63;5.82;;;;;;;;;;21076205;28;20055;-52
2021/12/15 18:04:58;;;;;;;27.50;13.25;;;;;;;;;;21078350;28;20044;-59
2021/12/15 18:15:01;;;;;;;38.00;18.60;;;;;;;;;;21078356;28;20058;-55
2021/12/15 18:25:04;;;;;;;26.15;9.50;;;;;;;;;;21093974;28;20093;-54
2021/12/15 18:35:06;;;;;;;23.48;14.18;;;;;;;;;;21093560;28;20078;-58
2021/12/15 18:45:08;;;;;;;14.80;6.45;;;;;;;;;;21093302;28;20555;-62
2021/12/15 18:55:11;;;;;;;8.98;4.35;;;;;;;;;;21092473;28;20079;-56
2021/12/15 19:05:13;;;;;;;8.70;3.63;;;;;;;;;;21091343;28;20044;-57
2021/12/15 19:15:16;;;;;;;7.47;3.53;;;;;;;;;;21093258;28;20052;-62
2021/12/15 19:25:21;;;;;;;6.13;3.30;;;;;;;;;;21089191;28;20478;-63
2021/12/15 19:35:28;;;;;;;11.52;5.40;;;;;;;;;;21088499;28;20084;-63
2021/12/15 19:45:30;;;;;;;27.20;14.98;;;;;;;;;;21087798;28;20051;-63
2021/12/15 19:55:32;;;;;;;10.65;5.72;;;;;;;;;;21087343;28;20052;-62
2021/12/15 20:05:38;;;;;;;13.90;8.27;;;;;;;;;;21087233;28;20119;-67
2021/12/15 20:15:42;;;;;;;18.83;9.95;;;;;;;;;;21088390;28;20101;-66
2021/12/15 20:25:46;;;;;;;;;;;;;;;;;;21083866;28;20048;-62
2021/12/15 20:35:49;;;;;;;11.55;8.52;;;;;;;;;;21082359;28;19974;-65
2021/12/15 20:45:52;;;;;;;13.70;5.28;;;;;;;;;;21080348;28;20047;-62
2021/12/15 20:55:54;;;;;;;17.33;11.25;;;;;;;;;;21081370;28;20052;-64
2021/12/15 21:06:00;;;;;;;30.67;17.55;;;;;;;;;;21080360;28;20486;-63
2021/12/15 21:16:12;;;;;;;12.98;7.65;;;;;;;;;;21079908;28;20466;-65
2021/12/15 21:26:17;;;;;;;14.10;6.87;;;;;;;;;;21077652;28;20047;-62
2021/12/15 21:36:20;;;;;;;10.52;4.60;;;;;;;;;;21077771;28;20056;-61
2021/12/15 21:46:22;;;;;;;13.68;6.45;;;;;;;;;;21078228;28;20478;-62
2021/12/15 21:56:25;;;;;;;7.65;4.20;;;;;;;;;;21097142;28;20052;-65
2021/12/15 22:06:30;;;;;;;11.90;5.18;;;;;;;;;;21104460;28;20048;-64
2021/12/15 22:16:32;;;;;;;10.33;6.17;;;;;;;;;;21105001;28;20409;-62
2021/12/15 22:26:38;;;;;;;9.43;4.18;;;;;;;;;;21106545;28;20397;-62
2021/12/15 22:36:40;;;;;;;6.77;3.87;;;;;;;;;;21105998;28;20048;-61
2021/12/15 22:46:44;;;;;;;6.30;3.63;;;;;;;;;;21105601;28;20048;-62
2021/12/15 22:56:48;;;;;;;9.82;4.78;;;;;;;;;;21086948;28;20119;-61
2021/12/15 23:06:53;;;;;;;9.70;4.40;;;;;;;;;;21095311;28;20455;-64
2021/12/15 23:16:57;;;;;;;8.48;4.07;;;;;;;;;;21091090;28;20044;-65
2021/12/15 23:26:59;;;;;;;7.00;4.30;;;;;;;;;;21089642;28;20097;-61
2021/12/15 23:37:03;;;;;;;6.47;3.97;;;;;;;;;;21088820;28;20101;-63
